Date,TemperatureHighF,TemperatureAvgF,TemperatureLowF,DewpointHighF,DewpointAvgF,DewpointLowF,HumidityHigh,HumidityAvg,HumidityLow,PressureMaxIn,PressureMinIn,WindSpeedMaxMPH,WindSpeedAvgMPH,GustSpeedMaxMPH,PrecipitationSumIn
2012-7-11,70.0,66.1,60.0,23.0,15.5,9.0,21,14,11,0.00,40.00,0,0,0,0.00
2012-7-12,64.0,59.6,54.0,43.0,21.9,3.0,57,27,10,0.00,40.00,0,0,0,0.00
2012-7-13,65.0,56.3,51.0,38.0,26.4,11.0,54,33,14,0.00,40.00,0,0,0,0.00
2012-7-14,63.0,55.7,52.0,49.0,35.0,27.0,72,46,35,0.00,40.00,0,0,8,0.00
2012-7-15,57.0,50.5,40.0,39.0,26.2,-4.0,75,43,9,0.00,40.00,16,6,27,0.00
2012-7-16,58.0,46.6,36.0,39.0,32.5,27.0,80,60,37,0.00,40.00,13,2,25,0.00
2012-7-17,61.0,54.7,51.0,49.0,40.8,37.0,74,59,52,0.00,40.00,12,7,23,0.00
2012-7-18,66.0,56.9,49.0,49.0,38.7,30.0,79,52,31,0.00,40.00,0,0,1,0.00
2012-7-19,68.0,61.1,56.0,49.0,40.6,31.0,77,48,34,0.00,40.00,0,0,0,0.00
2012-7-20,55.0,48.8,42.0,45.0,38.7,29.0,87,69,44,0.00,40.00,14,3,24,0.00
2012-7-21,58.0,52.6,47.0,41.0,30.0,-4.0,63,44,8,0.00,40.00,7,0,16,0.00
2012-7-22,55.0,50.2,43.0,22.0,11.5,-6.0,33,22,8,0.00,40.00,24,6,37,0.00
2012-7-23,56.0,48.4,36.0,40.0,28.9,4.0,66,49,17,0.00,40.00,10,1,23,0.00
2012-7-24,65.0,56.1,50.0,44.0,28.6,11.0,62,36,19,0.00,40.00,0,0,0,0.00
2012-7-25,67.0,61.0,54.0,43.0,34.9,28.0,57,38,26,0.00,40.00,0,0,0,0.00
2012-7-26,64.0,58.8,55.0,41.0,31.7,9.0,44,36,14,0.00,40.00,13,2,22,0.00
2012-7-27,59.0,55.7,51.0,24.0,12.6,3.0,35,18,10,0.00,40.00,15,6,27,0.00
2012-7-28,57.0,52.5,46.0,27.0,19.6,0.0,36,28,10,0.00,40.00,10,1,21,0.00
2012-7-29,63.0,55.1,50.0,42.0,19.5,6.0,56,27,12,0.00,40.00,0,0,0,0.00
2012-7-30,58.0,53.8,49.0,42.0,25.2,-1.0,62,35,10,0.00,40.00,13,2,22,0.00
2012-7-31,60.0,55.1,51.0,36.0,15.0,10.0,42,21,15,0.00,40.00,0,0,7,0.00
2012-8-1,62.0,54.9,50.0,35.0,24.3,14.0,42,31,18,0.00,40.00,0,0,0,0.00
2012-8-2,63.0,55.5,50.0,40.0,30.7,16.0,51,40,24,0.00,40.00,0,0,0,0.00
2012-8-3,63.0,55.0,48.0,37.0,31.5,22.0,60,42,30,0.00,40.00,10,1,22,0.00
2012-8-4,72.0,64.3,54.0,33.0,28.1,23.0,32,26,21,0.00,40.00,12,1,21,0.00
2012-8-5,68.0,63.6,62.0,33.0,27.1,22.0,27,25,21,0.00,40.00,0,0,0,0.00
2012-8-6,72.0,66.3,61.0,47.0,40.4,35.0,53,39,26,0.00,40.00,1,0,13,0.00
2012-8-7,67.0,63.6,59.0,46.0,34.0,7.0,50,35,12,0.00,40.00,16,2,28,0.00
2012-8-8,61.0,59.2,56.0,25.0,11.0,-2.0,25,15,9,0.00,40.00,14,7,23,0.00
2012-8-9,67.0,59.2,53.0,40.0,24.3,11.0,38,26,15,0.00,40.00,0,0,0,0.00
2012-8-10,66.0,61.1,56.0,38.0,23.6,2.0,46,26,10,0.00,40.00,0,0,0,0.00
2012-8-11,72.0,61.8,56.0,34.0,15.1,-99.9,28,18,9,0.00,40.00,0,0,0,0.00
2012-8-12,75.0,65.7,58.0,37.0,27.0,12.0,34,24,15,0.00,40.00,0,0,0,0.00
2012-8-13,74.0,65.9,61.0,34.0,25.0,11.0,34,22,11,0.00,40.00,0,0,0,0.00
2012-8-14,74.0,66.0,62.0,48.0,27.3,-3.0,48,27,7,0.00,40.00,0,0,0,0.00
2012-8-15,68.0,62.6,55.0,39.0,33.2,11.0,51,34,15,0.00,40.00,0,0,0,0.00
2012-8-16,69.0,61.0,54.0,45.0,35.2,31.0,51,39,29,0.00,40.00,0,0,0,0.00
2012-8-17,79.0,67.9,58.0,40.0,33.0,18.0,40,28,16,0.00,40.00,0,0,0,0.00
2012-8-18,69.0,65.5,64.0,36.0,32.4,25.0,34,29,22,0.00,40.00,0,0,3,0.00
2012-8-19,65.0,62.2,59.0,34.0,24.4,-2.0,34,25,8,0.00,40.00,14,5,24,0.00
2012-8-20,66.0,61.5,59.0,32.0,24.6,13.0,28,24,16,0.00,40.00,13,4,24,0.00
2012-8-21,62.0,57.1,53.0,41.0,23.5,13.0,47,28,19,0.00,40.00,16,5,28,0.00
2012-8-22,62.0,54.4,47.0,40.0,24.2,4.0,52,33,13,0.00,40.00,10,1,20,0.00
2012-8-23,56.0,50.9,45.0,37.0,10.1,-27.0,55,26,3,0.00,40.00,10,2,22,0.00
2012-8-24,59.0,50.2,42.0,33.0,14.5,-18.0,45,26,5,0.00,40.00,3,0,14,0.00
2012-8-25,64.0,55.2,48.0,32.0,19.5,-4.0,44,26,10,0.00,40.00,0,0,3,0.00
2012-8-26,57.0,52.7,46.0,32.0,25.9,22.0,59,35,28,0.00,40.00,14,4,32,0.00
2012-8-27,53.0,46.5,41.0,41.0,36.5,34.0,79,69,53,0.00,40.00,14,6,28,0.00
2012-8-28,50.0,44.3,38.0,40.0,36.4,29.0,82,74,64,0.00,40.00,15,6,28,0.00
2012-8-29,47.0,41.7,36.0,35.0,27.5,12.0,77,60,26,0.00,40.00,15,2,27,0.00
2012-8-30,59.0,51.7,43.0,32.0,18.2,-8.0,53,28,7,0.00,40.00,0,0,5,0.00
2012-8-31,59.0,53.6,44.0,12.0,-1.9,-21.0,20,11,4,0.00,40.00,8,2,20,0.00
2012-9-1,57.0,49.3,44.0,32.0,15.0,-6.0,43,27,11,0.00,40.00,0,0,5,0.00
2012-9-2,59.0,50.8,45.0,35.0,18.3,2.0,49,29,16,0.00,40.00,0,0,0,0.00
2012-9-3,63.0,54.0,46.0,35.0,22.0,2.0,44,30,14,0.00,40.00,0,0,0,0.00
2012-9-4,65.0,56.3,50.0,39.0,30.1,20.0,53,37,27,0.00,40.00,0,0,0,0.00
2012-9-5,64.0,56.4,50.0,33.0,23.2,-10.0,47,31,5,0.00,40.00,0,0,0,0.00
2012-9-6,61.0,53.6,45.0,36.0,28.6,11.0,63,40,18,0.00,40.00,3,0,9,0.00
2012-9-7,66.0,57.0,47.0,32.0,25.2,19.0,49,30,21,0.00,40.00,5,0,12,0.00
2012-9-8,70.0,61.0,57.0,43.0,27.7,13.0,52,29,16,0.00,40.00,7,0,14,0.00
2012-9-9,58.0,51.3,48.0,20.0,8.1,-2.0,29,18,9,0.00,40.00,13,10,25,0.00
2012-9-10,47.0,40.5,36.0,36.0,29.5,17.0,89,67,38,0.00,40.00,15,12,24,0.00
2012-9-11,52.0,46.4,41.0,31.0,24.2,1.0,61,44,15,0.00,40.00,0,0,0,0.00
2012-9-12,56.0,46.2,40.0,16.0,7.8,-10.0,34,22,9,0.00,40.00,0,0,2,0.00
2012-9-14,68.0,65.3,63.0,32.0,22.3,18.0,27,19,16,0.00,40.00,0,0,6,0.00
2012-9-15,62.0,60.0,59.0,23.0,22.4,22.0,24,23,21,0.00,40.00,0,0,0,0.00
2012-9-16,60.0,60.0,60.0,21.0,17.0,14.0,22,19,16,0.00,40.00,0,0,0,0.00
2012-10-1,68.0,59.1,54.0,32.0,27.0,22.0,34,29,24,0.00,40.00,0,0,0,0.00
2012-10-2,57.0,55.2,54.0,33.0,22.7,10.0,41,29,15,0.00,40.00,0,0,0,0.00
2012-10-19,36.0,34.8,31.0,34.0,33.1,30.0,95,94,94,0.00,40.00,16,15,37,0.00
2012-10-20,30.0,23.8,21.0,29.0,22.1,19.0,96,93,91,0.00,40.00,20,12,45,0.00
2012-10-21,25.0,22.3,20.0,23.0,20.3,18.0,93,92,91,0.00,40.00,7,4,18,0.00
2012-10-22,24.0,21.7,19.0,22.0,19.7,17.0,93,92,90,0.00,40.00,17,7,31,0.00
2012-10-23,22.0,20.2,19.0,20.0,18.2,17.0,91,91,90,0.00,40.00,12,7,23,0.00
2012-10-24,23.0,22.0,21.0,21.0,20.0,19.0,92,91,91,0.00,40.00,6,5,17,0.00
2012-10-25,30.0,24.0,20.0,28.0,22.0,18.0,93,92,90,0.00,40.00,9,2,18,0.00
2012-10-26,32.0,28.2,25.0,30.0,24.8,12.0,95,88,42,0.00,40.00,21,10,33,0.00
2012-10-27,42.0,36.8,31.0,40.0,25.5,-3.0,94,70,22,0.00,40.00,20,15,37,0.00
2012-10-28,41.0,40.2,38.0,39.0,38.2,36.0,93,93,92,0.00,40.00,23,20,45,0.00
2012-10-29,41.0,37.6,36.0,39.0,35.6,34.0,94,94,93,0.00,40.00,20,15,41,0.00
2012-10-30,42.0,39.1,38.0,38.0,36.7,33.0,94,92,74,0.00,40.00,18,14,35,0.00
2012-10-31,43.0,37.3,32.0,36.0,29.6,23.0,95,76,46,0.00,40.00,13,10,27,0.00
2012-11-1,33.0,31.1,29.0,32.0,30.0,28.0,95,95,92,0.00,40.00,20,13,40,0.00
2012-11-2,39.0,34.4,31.0,34.0,26.7,17.0,95,75,44,0.00,40.00,10,5,20,0.00
2012-11-3,38.0,37.0,36.0,36.0,34.9,33.0,94,93,84,0.00,40.00,14,10,25,0.00
2012-11-4,55.0,45.3,38.0,42.0,37.2,31.0,93,75,47,0.00,40.00,16,13,27,0.00
2012-11-5,55.0,48.6,43.0,43.0,29.7,0.0,93,56,12,0.00,40.00,12,8,22,0.00
2012-11-6,53.0,45.8,34.0,40.0,32.8,22.0,94,66,31,0.00,40.00,14,8,29,0.00
2012-11-7,33.0,26.0,23.0,30.0,18.7,12.0,89,75,51,0.00,40.00,29,14,50,0.00
2012-11-8,24.0,21.5,19.0,19.0,15.2,10.0,89,77,58,0.00,40.00,2,0,7,0.00
2012-11-9,23.0,17.9,14.0,17.0,13.0,6.0,90,80,71,0.00,40.00,1,0,12,0.00
2012-11-10,23.0,15.2,11.0,16.0,8.9,4.0,84,76,63,0.00,40.00,3,1,20,0.00
2012-11-11,28.0,22.8,15.0,27.0,19.7,9.0,94,88,77,0.00,40.00,13,6,27,0.00
2012-11-12,30.0,28.4,27.0,29.0,27.4,26.0,95,95,94,0.00,40.00,9,6,22,0.00
2012-11-13,30.0,28.1,25.0,27.0,25.3,19.0,95,89,75,0.00,40.00,9,3,13,0.00
2012-11-14,35.0,28.0,26.0,27.0,21.2,-99.9,94,83,71,0.00,40.00,8,2,12,0.00
2012-11-15,35.0,30.1,26.0,27.0,19.1,-1.0,94,68,24,0.00,40.00,13,6,21,0.00
2012-11-16,34.0,31.9,31.0,29.0,25.7,23.0,93,78,66,0.00,40.00,10,8,17,0.00
2012-11-17,33.0,27.3,20.0,30.0,24.9,18.0,95,91,69,0.00,40.00,20,10,32,0.00
2012-11-18,27.0,24.2,22.0,26.0,22.6,20.0,94,93,92,0.00,40.00,17,14,31,0.00
2012-11-19,32.0,29.8,27.0,31.0,28.8,26.0,95,95,94,0.00,40.00,21,20,38,0.00
2012-11-20,29.0,26.8,25.0,28.0,25.8,24.0,95,94,94,0.00,40.00,23,15,41,0.00
2012-11-21,26.0,21.5,19.0,25.0,19.7,17.0,94,92,91,0.00,40.00,16,14,38,0.00
2012-11-22,20.0,20.0,20.0,18.0,18.0,18.0,91,91,91,0.00,40.00,15,15,36,0.00
2012-11-23,20.0,20.0,20.0,18.0,18.0,18.0,91,91,91,0.00,40.00,15,15,36,0.00
2012-11-28,32.0,31.4,31.0,30.0,27.2,22.0,95,85,68,0.00,40.00,15,12,27,0.00
2012-11-29,31.0,29.0,27.0,29.0,27.6,26.0,95,93,80,0.00,40.00,15,10,25,0.00
2012-11-30,30.0,28.8,28.0,29.0,27.8,27.0,95,95,95,0.00,40.00,16,13,30,0.00
2012-12-1,28.0,25.7,23.0,27.0,24.5,21.0,95,94,93,0.00,40.00,17,13,38,0.00
2012-12-2,27.0,24.3,21.0,26.0,22.8,19.0,95,93,91,0.00,40.00,17,11,50,0.00
2012-12-3,27.0,25.5,23.0,26.0,24.5,21.0,95,94,93,0.00,40.00,18,11,51,0.00
2012-12-4,35.0,32.5,25.0,34.0,31.5,24.0,96,95,94,0.00,40.00,27,17,46,0.00
2012-12-5,25.0,20.2,17.0,24.0,15.3,9.0,94,82,57,0.00,40.00,32,18,55,0.00
2012-12-6,23.0,18.7,16.0,21.0,9.9,-99.9,92,82,70,0.00,40.00,18,11,36,0.00
2012-12-7,23.0,21.5,16.0,21.0,19.5,13.0,92,91,89,0.00,40.00,25,16,43,0.00
2012-12-8,20.0,16.9,14.0,17.0,14.4,11.0,90,89,86,0.00,40.00,20,16,31,0.00
2012-12-9,34.0,27.5,19.0,32.0,24.6,17.0,94,89,82,0.00,40.00,24,10,37,0.00
2012-12-10,41.0,37.5,31.0,22.0,18.4,11.0,58,46,38,0.00,40.00,22,16,35,0.00
2012-12-11,34.0,25.8,21.0,22.0,16.4,0.0,92,72,24,0.00,40.00,20,15,33,0.00
2012-12-12,21.0,18.4,16.0,19.0,15.1,11.0,90,87,81,0.00,40.00,18,10,27,0.00
2012-12-13,27.0,21.3,16.0,13.0,4.1,-7.0,77,50,24,0.00,40.00,12,3,20,0.00
2012-12-14,25.0,19.0,15.0,17.0,8.0,-15.0,89,66,24,0.00,40.00,20,7,28,0.00
2012-12-15,21.0,17.4,14.0,19.0,1.8,-20.0,90,60,18,0.00,40.00,22,13,41,0.00
2012-12-16,26.0,20.4,15.0,25.0,18.4,12.0,94,91,89,0.00,40.00,27,19,56,0.00
2012-12-17,24.0,16.2,9.0,22.0,13.7,6.0,93,90,87,0.00,40.00,31,19,63,0.00
2012-12-18,11.0,10.7,10.0,8.0,7.7,7.0,88,88,87,0.00,40.00,12,9,22,0.00
2012-12-19,23.0,19.1,11.0,21.0,16.9,8.0,92,90,88,0.00,40.00,20,17,35,0.00
2012-12-20,23.0,19.9,15.0,21.0,17.8,12.0,92,91,89,0.00,40.00,21,16,40,0.00
2012-12-21,23.0,20.9,18.0,21.0,18.9,16.0,92,91,90,0.00,40.00,12,6,21,0.00
2012-12-22,22.0,19.9,18.0,20.0,17.9,16.0,91,91,90,0.00,40.00,17,10,30,0.00
2012-12-23,21.0,18.1,15.0,19.0,15.9,12.0,91,90,89,0.00,40.00,35,12,55,0.00
2012-12-24,17.0,16.3,15.0,15.0,13.9,12.0,90,90,89,0.00,40.00,27,13,39,0.00
2012-12-25,26.0,19.2,14.0,24.0,16.9,11.0,93,90,89,0.00,40.00,15,6,24,0.00
2012-12-26,24.0,21.2,18.0,22.0,19.2,16.0,93,91,90,0.00,40.00,23,14,33,0.00
2012-12-27,26.0,18.2,15.0,25.0,16.0,12.0,94,90,89,0.00,40.00,21,6,30,0.00
2012-12-28,21.0,18.0,15.0,19.0,15.7,12.0,91,90,89,0.00,40.00,5,1,13,0.00
2012-12-29,25.0,18.7,14.0,23.0,16.3,11.0,93,90,89,0.00,40.00,13,5,24,0.00
2012-12-30,30.0,19.7,15.0,28.0,17.3,12.0,94,90,89,0.00,40.00,12,5,22,0.00
2012-12-31,23.0,20.1,18.0,21.0,17.8,15.0,91,90,89,0.00,40.00,7,2,12,0.00
2013-1-1,30.0,25.6,22.0,25.0,19.3,12.0,90,77,48,0.00,40.00,9,2,15,0.00